createdAt,value
2019-04-21T00:08:46.980Z,8.54
2019-04-21T00:15:18.034Z,7.23
2019-04-21T00:20:28.860Z,8.51
2019-04-21T00:25:49.876Z,9.34
2019-04-21T00:31:24.825Z,6.16
2019-04-21T00:40:53.872Z,8.66
2019-04-21T00:52:04.013Z,9.31
2019-04-21T00:57:27.813Z,8.58
2019-04-21T01:12:19.056Z,8.51
2019-04-21T01:17:40.858Z,8.80
2019-04-21T01:22:03.028Z,8.56
2019-04-21T01:27:12.095Z,8.46
2019-04-21T01:32:48.363Z,9.96
2019-04-21T01:38:19.031Z,8.56
2019-04-21T01:43:45.753Z,9.14
2019-04-21T02:05:17.008Z,8.63
2019-04-21T02:10:34.686Z,8.66
2019-04-21T02:16:03.793Z,7.99
2019-04-21T02:40:51.386Z,8.94
2019-04-21T02:46:19.407Z,7.48
2019-04-21T03:03:54.405Z,10.15
2019-04-21T03:36:04.906Z,9.25
2019-04-21T03:40:39.941Z,9.99
2019-04-21T03:46:32.500Z,9.63
2019-04-21T03:52:19.531Z,9.14
2019-04-21T04:04:49.701Z,9.91
2019-04-21T04:12:19.598Z,10.60
2019-04-21T04:18:00.859Z,9.36
2019-04-21T04:23:31.019Z,8.96
2019-04-21T04:29:08.840Z,9.62
2019-04-21T04:34:27.625Z,8.79
2019-04-21T04:45:44.179Z,10.30
2019-04-21T04:51:43.946Z,10.65
2019-04-21T05:08:42.269Z,10.25
2019-04-21T05:14:08.453Z,10.94
2019-04-21T05:25:48.400Z,11.09
2019-04-21T05:32:22.943Z,10.25
2019-04-21T05:38:06.198Z,9.63
2019-04-21T05:43:32.251Z,10.24
2019-04-21T05:49:32.736Z,7.47
2019-04-21T05:55:01.164Z,8.01
2019-04-21T06:01:30.201Z,9.56
2019-04-21T06:09:04.952Z,9.19
2019-04-21T06:14:21.776Z,10.56
2019-04-21T06:20:20.947Z,10.74
2019-04-21T06:38:13.136Z,9.47
2019-04-21T06:43:48.545Z,8.90
2019-04-21T06:49:17.288Z,10.11
2019-04-21T06:55:03.281Z,10.28
2019-04-21T07:07:54.690Z,10.14
2019-04-21T07:13:23.745Z,9.74
2019-04-21T07:24:37.127Z,8.48
2019-04-21T07:30:14.308Z,7.71
2019-04-21T07:35:57.865Z,7.41
2019-04-21T07:41:18.556Z,7.58
2019-04-21T07:47:01.068Z,5.90
2019-04-21T07:56:27.427Z,7.01
2019-04-21T08:01:53.232Z,6.54
2019-04-21T08:07:23.921Z,6.35
2019-04-21T08:13:12.612Z,5.54
2019-04-21T08:18:28.727Z,5.51
2019-04-21T08:24:59.133Z,5.99
2019-04-21T08:30:45.872Z,5.99
2019-04-21T08:41:56.202Z,5.19
2019-04-21T08:47:36.541Z,5.46
2019-04-21T08:54:09.546Z,4.81
2019-04-21T09:00:22.952Z,4.21
2019-04-21T09:05:52.523Z,5.03
2019-04-21T09:13:17.011Z,5.45
2019-04-21T09:18:32.425Z,6.33
2019-04-21T09:26:05.508Z,5.26
2019-04-21T09:30:12.965Z,6.29
2019-04-21T09:34:48.922Z,7.60
2019-04-21T09:39:29.635Z,5.37
2019-04-21T09:43:57.915Z,6.55
2019-04-21T09:48:30.648Z,6.55
2019-04-21T09:53:35.158Z,7.06
2019-04-21T09:58:26.397Z,5.64
2019-04-21T10:03:14.020Z,6.14
2019-04-21T10:07:46.479Z,5.63
2019-04-21T10:11:52.643Z,6.40
2019-04-21T10:17:08.426Z,6.58
2019-04-21T10:21:13.113Z,5.85
2019-04-21T11:04:42.286Z,3.96
2019-04-21T11:48:21.937Z,4.94
2019-04-21T11:52:31.240Z,5.56
2019-04-21T11:56:48.542Z,4.58
2019-04-21T12:01:11.630Z,5.30
2019-04-21T12:44:20.492Z,5.00
2019-04-21T13:27:43.055Z,4.51
2019-04-21T13:31:45.717Z,4.89
2019-04-21T13:36:00.422Z,5.60
2019-04-21T13:41:36.213Z,5.40
2019-04-21T14:25:01.783Z,4.94
2019-04-21T14:29:17.566Z,6.05
2019-04-21T14:33:32.035Z,4.81
2019-04-21T14:37:40.426Z,4.80
2019-04-21T14:46:26.998Z,5.31
2019-04-21T15:23:15.580Z,5.06
2019-04-21T15:27:18.992Z,3.41
2019-04-21T15:35:21.368Z,4.62
2019-04-21T15:41:20.600Z,4.88
2019-04-21T15:49:18.637Z,5.39
2019-04-21T15:53:28.205Z,4.62
2019-04-21T15:58:20.665Z,5.12
2019-04-21T16:04:20.886Z,4.59
2019-04-21T16:08:27.082Z,4.21
2019-04-21T16:16:32.718Z,4.57
2019-04-21T16:20:37.657Z,4.30
2019-04-21T16:24:52.722Z,4.72
2019-04-21T16:29:05.004Z,4.05
2019-04-21T16:33:14.354Z,4.84
2019-04-21T16:37:25.696Z,4.51
2019-04-21T16:41:38.412Z,3.69
2019-04-21T16:45:46.594Z,4.12
2019-04-21T16:49:55.887Z,4.14
2019-04-21T16:54:15.850Z,3.95
2019-04-21T17:10:22.469Z,3.86
2019-04-21T17:54:23.627Z,4.18
2019-04-21T18:00:04.359Z,2.65
2019-04-21T18:05:31.958Z,3.99
2019-04-21T18:11:03.455Z,3.80
2019-04-21T18:55:28.122Z,4.55
2019-04-21T18:59:55.323Z,3.80
2019-04-21T19:04:05.405Z,4.45
2019-04-21T19:25:11.487Z,3.74
2019-04-21T19:30:44.683Z,4.51
2019-04-21T21:23:05.248Z,6.42
2019-04-21T21:28:26.610Z,6.22
2019-04-21T21:39:57.292Z,5.92
2019-04-21T21:44:28.288Z,5.43
2019-04-21T21:49:51.292Z,6.22
2019-04-21T22:14:13.249Z,7.65
2019-04-21T22:30:51.828Z,6.14
2019-04-21T22:35:23.887Z,6.39
2019-04-21T22:43:51.506Z,7.80
2019-04-21T22:47:56.267Z,7.60
2019-04-21T22:52:32.356Z,7.70
2019-04-21T22:57:48.096Z,6.25
2019-04-21T23:03:25.261Z,8.26
2019-04-21T23:08:04.796Z,7.70
2019-04-21T23:12:43.758Z,5.94
2019-04-21T23:24:05.719Z,7.62
2019-04-21T23:29:39.493Z,5.54
2019-04-21T23:34:40.318Z,5.77
2019-04-21T23:41:09.583Z,5.97
2019-04-21T23:53:05.647Z,5.85
2019-04-21T23:57:40.911Z,6.31
